sensor_id;sensor_type;location;lat;lon;timestamp;P1;durP1;ratioP1;P2;durP2;ratioP2
5878;SDS011;2965;42.640;23.370;2022-11-04T05:02:29;34.50;;;16.57;;
5878;SDS011;2965;42.640;23.370;2022-11-04T05:04:59;39.23;;;17.30;;
5878;SDS011;2965;42.640;23.370;2022-11-04T05:07:25;38.03;;;17.97;;
5878;SDS011;2965;42.640;23.370;2022-11-04T05:09:51;34.67;;;17.47;;
5878;SDS011;2965;42.640;23.370;2022-11-04T05:12:16;38.43;;;17.20;;
5878;SDS011;2965;42.640;23.370;2022-11-04T05:14:42;37.10;;;17.40;;
5878;SDS011;2965;42.640;23.370;2022-11-04T05:17:07;30.60;;;17.80;;
5878;SDS011;2965;42.640;23.370;2022-11-04T05:19:33;35.60;;;16.67;;
5878;SDS011;2965;42.640;23.370;2022-11-04T05:21:58;28.97;;;17.40;;
5878;SDS011;2965;42.640;23.370;2022-11-04T05:24:24;32.10;;;16.73;;
5878;SDS011;2965;42.640;23.370;2022-11-04T05:26:49;40.03;;;16.83;;
5878;SDS011;2965;42.640;23.370;2022-11-04T05:29:14;42.13;;;21.23;;
5878;SDS011;2965;42.640;23.370;2022-11-04T05:31:40;32.87;;;19.53;;
5878;SDS011;2965;42.640;23.370;2022-11-04T05:34:08;40.70;;;17.97;;
5878;SDS011;2965;42.640;23.370;2022-11-04T05:36:34;49.23;;;20.13;;
5878;SDS011;2965;42.640;23.370;2022-11-04T05:39:01;26.10;;;17.93;;
5878;SDS011;2965;42.640;23.370;2022-11-04T05:41:26;36.00;;;18.43;;
5878;SDS011;2965;42.640;23.370;2022-11-04T05:43:52;38.27;;;19.10;;
5878;SDS011;2965;42.640;23.370;2022-11-04T05:46:19;33.07;;;16.53;;
5878;SDS011;2965;42.640;23.370;2022-11-04T05:48:45;42.23;;;20.00;;
5878;SDS011;2965;42.640;23.370;2022-11-04T05:51:14;35.20;;;20.20;;
5878;SDS011;2965;42.640;23.370;2022-11-04T05:53:40;33.00;;;18.90;;
5878;SDS011;2965;42.640;23.370;2022-11-04T05:56:06;43.97;;;20.60;;
5878;SDS011;2965;42.640;23.370;2022-11-04T05:58:32;46.53;;;22.73;;
5878;SDS011;2965;42.640;23.370;2022-11-04T06:01:11;41.73;;;21.93;;
5878;SDS011;2965;42.640;23.370;2022-11-04T06:03:48;40.77;;;22.13;;
5878;SDS011;2965;42.640;23.370;2022-11-04T06:06:14;66.13;;;22.67;;
5878;SDS011;2965;42.640;23.370;2022-11-04T06:08:40;50.73;;;23.50;;
5878;SDS011;2965;42.640;23.370;2022-11-04T06:11:05;56.73;;;24.37;;
5878;SDS011;2965;42.640;23.370;2022-11-04T06:13:31;54.63;;;25.80;;
5878;SDS011;2965;42.640;23.370;2022-11-04T06:15:57;66.43;;;26.60;;
5878;SDS011;2965;42.640;23.370;2022-11-04T06:18:22;57.80;;;25.80;;
5878;SDS011;2965;42.640;23.370;2022-11-04T06:20:47;47.27;;;24.37;;
5878;SDS011;2965;42.640;23.370;2022-11-04T06:23:13;50.97;;;25.30;;
5878;SDS011;2965;42.640;23.370;2022-11-04T06:25:38;47.30;;;24.87;;
5878;SDS011;2965;42.640;23.370;2022-11-04T06:28:03;49.00;;;25.13;;
5878;SDS011;2965;42.640;23.370;2022-11-04T06:30:29;61.57;;;24.80;;
5878;SDS011;2965;42.640;23.370;2022-11-04T06:32:54;55.40;;;24.17;;
5878;SDS011;2965;42.640;23.370;2022-11-04T06:35:19;51.00;;;24.23;;
5878;SDS011;2965;42.640;23.370;2022-11-04T06:37:45;49.20;;;25.53;;
5878;SDS011;2965;42.640;23.370;2022-11-04T06:40:10;49.53;;;25.47;;
5878;SDS011;2965;42.640;23.370;2022-11-04T06:42:36;51.53;;;24.23;;
5878;SDS011;2965;42.640;23.370;2022-11-04T06:45:01;57.57;;;25.60;;
5878;SDS011;2965;42.640;23.370;2022-11-04T06:47:27;53.90;;;25.93;;
5878;SDS011;2965;42.640;23.370;2022-11-04T06:49:52;53.20;;;25.13;;
5878;SDS011;2965;42.640;23.370;2022-11-04T06:52:17;51.93;;;26.27;;
5878;SDS011;2965;42.640;23.370;2022-11-04T06:54:43;50.07;;;25.40;;
5878;SDS011;2965;42.640;23.370;2022-11-04T06:57:09;44.57;;;25.40;;
5878;SDS011;2965;42.640;23.370;2022-11-04T06:59:35;47.47;;;26.23;;
5878;SDS011;2965;42.640;23.370;2022-11-04T07:02:01;67.93;;;26.30;;
5878;SDS011;2965;42.640;23.370;2022-11-04T07:04:26;57.20;;;26.87;;
5878;SDS011;2965;42.640;23.370;2022-11-04T07:06:52;71.37;;;29.17;;
5878;SDS011;2965;42.640;23.370;2022-11-04T07:09:17;59.77;;;28.80;;
5878;SDS011;2965;42.640;23.370;2022-11-04T07:11:43;61.40;;;29.37;;
5878;SDS011;2965;42.640;23.370;2022-11-04T07:14:09;76.23;;;29.80;;
5878;SDS011;2965;42.640;23.370;2022-11-04T07:16:35;60.20;;;29.07;;
5878;SDS011;2965;42.640;23.370;2022-11-04T07:19:00;65.27;;;30.53;;
5878;SDS011;2965;42.640;23.370;2022-11-04T07:21:26;58.93;;;28.87;;
5878;SDS011;2965;42.640;23.370;2022-11-04T07:23:51;63.10;;;30.10;;
5878;SDS011;2965;42.640;23.370;2022-11-04T07:26:17;65.10;;;31.00;;
5878;SDS011;2965;42.640;23.370;2022-11-04T07:28:42;64.30;;;29.87;;
5878;SDS011;2965;42.640;23.370;2022-11-04T07:31:09;53.00;;;29.17;;
5878;SDS011;2965;42.640;23.370;2022-11-04T07:33:36;61.57;;;29.27;;
5878;SDS011;2965;42.640;23.370;2022-11-04T07:36:06;73.93;;;28.90;;
5878;SDS011;2965;42.640;23.370;2022-11-04T07:38:33;65.83;;;30.87;;
5878;SDS011;2965;42.640;23.370;2022-11-04T07:40:59;74.53;;;29.90;;
5878;SDS011;2965;42.640;23.370;2022-11-04T07:43:26;68.83;;;31.33;;
5878;SDS011;2965;42.640;23.370;2022-11-04T07:46:04;70.77;;;30.90;;
5878;SDS011;2965;42.640;23.370;2022-11-04T07:48:32;60.23;;;32.27;;
5878;SDS011;2965;42.640;23.370;2022-11-04T07:50:58;58.93;;;30.23;;
5878;SDS011;2965;42.640;23.370;2022-11-04T07:53:25;67.00;;;30.87;;
5878;SDS011;2965;42.640;23.370;2022-11-04T07:55:51;58.97;;;28.80;;
5878;SDS011;2965;42.640;23.370;2022-11-04T07:58:18;70.23;;;31.83;;
5878;SDS011;2965;42.640;23.370;2022-11-04T08:00:43;67.23;;;33.07;;
5878;SDS011;2965;42.640;23.370;2022-11-04T08:03:09;72.57;;;32.60;;
5878;SDS011;2965;42.640;23.370;2022-11-04T08:05:34;61.57;;;30.60;;
5878;SDS011;2965;42.640;23.370;2022-11-04T08:08:00;76.30;;;33.27;;
5878;SDS011;2965;42.640;23.370;2022-11-04T08:10:25;53.67;;;30.13;;
5878;SDS011;2965;42.640;23.370;2022-11-04T08:12:51;48.40;;;29.20;;
5878;SDS011;2965;42.640;23.370;2022-11-04T08:15:16;68.00;;;29.90;;
5878;SDS011;2965;42.640;23.370;2022-11-04T08:17:42;58.70;;;30.87;;
5878;SDS011;2965;42.640;23.370;2022-11-04T08:20:08;65.53;;;29.97;;
5878;SDS011;2965;42.640;23.370;2022-11-04T08:22:33;79.10;;;29.77;;
5878;SDS011;2965;42.640;23.370;2022-11-04T08:24:59;72.50;;;30.33;;
5878;SDS011;2965;42.640;23.370;2022-11-04T08:27:24;58.70;;;29.23;;
5878;SDS011;2965;42.640;23.370;2022-11-04T08:29:50;55.67;;;29.27;;
5878;SDS011;2965;42.640;23.370;2022-11-04T08:32:15;54.83;;;28.90;;
5878;SDS011;2965;42.640;23.370;2022-11-04T08:34:41;57.97;;;28.10;;
5878;SDS011;2965;42.640;23.370;2022-11-04T08:37:06;56.13;;;28.80;;
5878;SDS011;2965;42.640;23.370;2022-11-04T08:39:32;60.20;;;29.17;;
5878;SDS011;2965;42.640;23.370;2022-11-04T08:41:57;58.40;;;29.07;;
5878;SDS011;2965;42.640;23.370;2022-11-04T08:44:23;63.27;;;30.07;;
5878;SDS011;2965;42.640;23.370;2022-11-04T08:46:48;56.10;;;28.00;;
5878;SDS011;2965;42.640;23.370;2022-11-04T08:49:14;51.87;;;27.80;;
5878;SDS011;2965;42.640;23.370;2022-11-04T08:51:41;53.37;;;28.03;;
5878;SDS011;2965;42.640;23.370;2022-11-04T08:54:09;55.07;;;27.37;;
5878;SDS011;2965;42.640;23.370;2022-11-04T08:56:35;52.03;;;26.33;;
5878;SDS011;2965;42.640;23.370;2022-11-04T08:59:02;54.93;;;26.57;;
5878;SDS011;2965;42.640;23.370;2022-11-04T09:01:29;55.30;;;25.13;;
5878;SDS011;2965;42.640;23.370;2022-11-04T09:03:56;49.57;;;25.27;;
5878;SDS011;2965;42.640;23.370;2022-11-04T09:06:23;43.70;;;25.47;;
5878;SDS011;2965;42.640;23.370;2022-11-04T09:08:51;40.07;;;24.60;;
5878;SDS011;2965;42.640;23.370;2022-11-04T09:11:21;40.50;;;23.43;;
5878;SDS011;2965;42.640;23.370;2022-11-04T09:13:46;44.40;;;24.50;;
5878;SDS011;2965;42.640;23.370;2022-11-04T09:16:12;43.30;;;24.00;;
5878;SDS011;2965;42.640;23.370;2022-11-04T09:18:39;51.40;;;22.53;;
5878;SDS011;2965;42.640;23.370;2022-11-04T09:21:05;50.50;;;22.50;;
5878;SDS011;2965;42.640;23.370;2022-11-04T09:23:32;53.33;;;25.03;;
5878;SDS011;2965;42.640;23.370;2022-11-04T09:25:57;41.73;;;23.63;;
5878;SDS011;2965;42.640;23.370;2022-11-04T09:28:28;34.27;;;20.80;;
5878;SDS011;2965;42.640;23.370;2022-11-04T09:30:53;58.17;;;24.10;;
5878;SDS011;2965;42.640;23.370;2022-11-04T09:33:19;44.27;;;22.77;;
5878;SDS011;2965;42.640;23.370;2022-11-04T09:38:24;41.20;;;21.40;;
5878;SDS011;2965;42.640;23.370;2022-11-04T09:40:50;37.80;;;22.47;;
5878;SDS011;2965;42.640;23.370;2022-11-04T09:45:58;42.73;;;21.20;;
5878;SDS011;2965;42.640;23.370;2022-11-04T09:48:41;45.70;;;19.83;;
5878;SDS011;2965;42.640;23.370;2022-11-04T09:51:11;36.77;;;21.47;;
5878;SDS011;2965;42.640;23.370;2022-11-04T09:53:39;38.77;;;22.17;;
5878;SDS011;2965;42.640;23.370;2022-11-04T09:56:15;41.67;;;22.30;;
5878;SDS011;2965;42.640;23.370;2022-11-04T09:58:45;35.77;;;21.27;;
5878;SDS011;2965;42.640;23.370;2022-11-04T10:09:13;36.77;;;19.00;;
5878;SDS011;2965;42.640;23.370;2022-11-04T10:17:09;30.57;;;18.70;;
5878;SDS011;2965;42.640;23.370;2022-11-04T10:22:33;43.87;;;20.70;;
5878;SDS011;2965;42.640;23.370;2022-11-04T10:25:55;39.30;;;19.30;;
5878;SDS011;2965;42.640;23.370;2022-11-04T10:28:11;34.43;;;18.50;;
5878;SDS011;2965;42.640;23.370;2022-11-04T10:30:42;44.43;;;18.50;;
5878;SDS011;2965;42.640;23.370;2022-11-04T10:33:23;31.40;;;17.73;;
5878;SDS011;2965;42.640;23.370;2022-11-04T10:36:02;44.43;;;21.00;;
5878;SDS011;2965;42.640;23.370;2022-11-04T10:38:41;38.83;;;19.80;;
5878;SDS011;2965;42.640;23.370;2022-11-04T10:41:28;33.00;;;19.83;;
5878;SDS011;2965;42.640;23.370;2022-11-04T10:44:14;39.03;;;19.50;;
5878;SDS011;2965;42.640;23.370;2022-11-04T10:51:56;38.47;;;19.50;;
5878;SDS011;2965;42.640;23.370;2022-11-04T10:54:21;40.17;;;17.60;;
5878;SDS011;2965;42.640;23.370;2022-11-04T10:56:50;47.10;;;20.67;;
5878;SDS011;2965;42.640;23.370;2022-11-04T11:01:53;32.63;;;18.10;;
5878;SDS011;2965;42.640;23.370;2022-11-04T11:04:30;35.00;;;20.17;;
5878;SDS011;2965;42.640;23.370;2022-11-04T11:06:56;33.40;;;18.97;;
5878;SDS011;2965;42.640;23.370;2022-11-04T11:09:24;31.53;;;18.60;;
5878;SDS011;2965;42.640;23.370;2022-11-04T11:12:05;39.50;;;21.17;;
5878;SDS011;2965;42.640;23.370;2022-11-04T11:14:53;30.50;;;19.03;;
5878;SDS011;2965;42.640;23.370;2022-11-04T11:17:39;40.27;;;17.53;;
5878;SDS011;2965;42.640;23.370;2022-11-04T11:20:18;22.23;;;15.70;;
5878;SDS011;2965;42.640;23.370;2022-11-04T11:26:00;34.97;;;17.70;;
5878;SDS011;2965;42.640;23.370;2022-11-04T11:28:27;34.93;;;18.60;;
5878;SDS011;2965;42.640;23.370;2022-11-04T11:31:05;34.53;;;18.60;;
5878;SDS011;2965;42.640;23.370;2022-11-04T11:33:53;26.57;;;17.80;;
5878;SDS011;2965;42.640;23.370;2022-11-04T11:36:36;26.03;;;16.80;;
5878;SDS011;2965;42.640;23.370;2022-11-04T11:39:19;40.67;;;17.03;;
5878;SDS011;2965;42.640;23.370;2022-11-04T11:44:42;34.50;;;16.30;;
5878;SDS011;2965;42.640;23.370;2022-11-04T11:52:54;30.30;;;14.87;;
5878;SDS011;2965;42.640;23.370;2022-11-04T11:55:42;31.53;;;17.67;;
5878;SDS011;2965;42.640;23.370;2022-11-04T12:01:18;23.53;;;15.33;;
5878;SDS011;2965;42.640;23.370;2022-11-04T12:03:46;33.53;;;16.60;;
5878;SDS011;2965;42.640;23.370;2022-11-04T12:11:48;26.70;;;14.40;;
5878;SDS011;2965;42.640;23.370;2022-11-04T12:22:34;37.33;;;15.83;;
5878;SDS011;2965;42.640;23.370;2022-11-04T12:31:00;28.27;;;15.13;;
5878;SDS011;2965;42.640;23.370;2022-11-04T12:33:37;22.93;;;14.30;;
5878;SDS011;2965;42.640;23.370;2022-11-04T12:36:25;31.00;;;15.10;;
5878;SDS011;2965;42.640;23.370;2022-11-04T12:39:18;28.13;;;14.80;;
5878;SDS011;2965;42.640;23.370;2022-11-04T12:47:44;36.60;;;15.00;;
5878;SDS011;2965;42.640;23.370;2022-11-04T13:01:37;37.10;;;14.50;;
5878;SDS011;2965;42.640;23.370;2022-11-04T13:04:11;26.03;;;14.90;;
5878;SDS011;2965;42.640;23.370;2022-11-04T13:06:42;39.63;;;14.90;;
5878;SDS011;2965;42.640;23.370;2022-11-04T13:09:17;37.90;;;15.13;;
5878;SDS011;2965;42.640;23.370;2022-11-04T13:12:06;36.93;;;15.63;;
5878;SDS011;2965;42.640;23.370;2022-11-04T13:17:48;41.77;;;16.20;;
5878;SDS011;2965;42.640;23.370;2022-11-04T13:22:58;38.93;;;15.63;;
5878;SDS011;2965;42.640;23.370;2022-11-04T13:25:42;45.57;;;15.00;;
5878;SDS011;2965;42.640;23.370;2022-11-04T13:28:12;47.23;;;15.03;;
5878;SDS011;2965;42.640;23.370;2022-11-04T13:33:29;31.93;;;13.70;;
5878;SDS011;2965;42.640;23.370;2022-11-04T13:36:26;37.67;;;16.10;;
5878;SDS011;2965;42.640;23.370;2022-11-04T13:39:13;32.07;;;16.20;;
5878;SDS011;2965;42.640;23.370;2022-11-04T13:44:37;36.57;;;15.43;;
5878;SDS011;2965;42.640;23.370;2022-11-04T13:47:13;37.67;;;15.70;;
5878;SDS011;2965;42.640;23.370;2022-11-04T13:49:46;27.83;;;15.70;;
5878;SDS011;2965;42.640;23.370;2022-11-04T13:52:13;34.13;;;15.97;;
5878;SDS011;2965;42.640;23.370;2022-11-04T13:54:44;24.30;;;15.50;;
5878;SDS011;2965;42.640;23.370;2022-11-04T14:02:37;30.47;;;13.97;;
5878;SDS011;2965;42.640;23.370;2022-11-04T14:18:30;31.40;;;15.20;;
5878;SDS011;2965;42.640;23.370;2022-11-04T14:21:09;28.83;;;15.70;;
5878;SDS011;2965;42.640;23.370;2022-11-04T14:23:40;29.30;;;14.07;;
5878;SDS011;2965;42.640;23.370;2022-11-04T14:26:08;27.30;;;14.30;;
5878;SDS011;2965;42.640;23.370;2022-11-04T14:28:36;28.50;;;14.90;;
5878;SDS011;2965;42.640;23.370;2022-11-04T14:31:06;31.13;;;15.00;;
5878;SDS011;2965;42.640;23.370;2022-11-04T14:36:23;30.03;;;15.00;;
5878;SDS011;2965;42.640;23.370;2022-11-04T14:44:07;38.23;;;16.40;;
5878;SDS011;2965;42.640;23.370;2022-11-04T14:46:34;38.13;;;17.00;;
5878;SDS011;2965;42.640;23.370;2022-11-04T14:52:05;25.13;;;14.67;;
5878;SDS011;2965;42.640;23.370;2022-11-04T14:54:40;35.50;;;15.20;;
5878;SDS011;2965;42.640;23.370;2022-11-04T14:57:16;45.93;;;15.97;;
5878;SDS011;2965;42.640;23.370;2022-11-04T14:59:46;39.70;;;15.00;;
5878;SDS011;2965;42.640;23.370;2022-11-04T15:02:17;26.30;;;15.23;;
5878;SDS011;2965;42.640;23.370;2022-11-04T15:04:54;31.00;;;14.67;;
5878;SDS011;2965;42.640;23.370;2022-11-04T15:07:31;34.33;;;14.97;;
5878;SDS011;2965;42.640;23.370;2022-11-04T15:09:58;31.80;;;15.67;;
5878;SDS011;2965;42.640;23.370;2022-11-04T15:12:26;30.87;;;14.47;;
5878;SDS011;2965;42.640;23.370;2022-11-04T15:15:30;46.17;;;15.93;;
5878;SDS011;2965;42.640;23.370;2022-11-04T15:18:08;35.47;;;14.57;;
5878;SDS011;2965;42.640;23.370;2022-11-04T15:20:52;30.17;;;16.70;;
5878;SDS011;2965;42.640;23.370;2022-11-04T15:23:30;28.53;;;15.93;;
5878;SDS011;2965;42.640;23.370;2022-11-04T15:25:59;32.87;;;14.80;;
5878;SDS011;2965;42.640;23.370;2022-11-04T15:28:27;36.30;;;15.60;;
5878;SDS011;2965;42.640;23.370;2022-11-04T15:31:06;44.20;;;16.47;;
5878;SDS011;2965;42.640;23.370;2022-11-04T15:33:43;27.33;;;15.20;;
5878;SDS011;2965;42.640;23.370;2022-11-04T15:36:34;29.77;;;15.40;;
5878;SDS011;2965;42.640;23.370;2022-11-04T15:39:13;35.07;;;15.90;;
5878;SDS011;2965;42.640;23.370;2022-11-04T15:41:40;30.23;;;15.37;;
5878;SDS011;2965;42.640;23.370;2022-11-04T15:44:27;29.43;;;15.40;;
5878;SDS011;2965;42.640;23.370;2022-11-04T15:46:55;54.67;;;16.57;;
5878;SDS011;2965;42.640;23.370;2022-11-04T15:49:26;31.23;;;14.93;;
5878;SDS011;2965;42.640;23.370;2022-11-04T15:52:00;33.13;;;16.27;;
5878;SDS011;2965;42.640;23.370;2022-11-04T15:54:32;38.67;;;15.90;;
5878;SDS011;2965;42.640;23.370;2022-11-04T15:57:02;34.17;;;15.63;;
5878;SDS011;2965;42.640;23.370;2022-11-04T15:59:36;43.60;;;16.20;;
5878;SDS011;2965;42.640;23.370;2022-11-04T16:02:03;46.17;;;16.70;;
5878;SDS011;2965;42.640;23.370;2022-11-04T16:04:30;42.40;;;19.03;;
5878;SDS011;2965;42.640;23.370;2022-11-04T16:07:19;57.53;;;23.60;;
5878;SDS011;2965;42.640;23.370;2022-11-04T16:09:51;56.17;;;20.87;;
5878;SDS011;2965;42.640;23.370;2022-11-04T16:12:25;62.03;;;22.93;;
5878;SDS011;2965;42.640;23.370;2022-11-04T16:14:55;84.30;;;29.23;;
5878;SDS011;2965;42.640;23.370;2022-11-04T16:17:23;65.83;;;29.43;;
5878;SDS011;2965;42.640;23.370;2022-11-04T16:19:51;60.63;;;25.57;;
5878;SDS011;2965;42.640;23.370;2022-11-04T16:22:24;66.57;;;26.03;;
5878;SDS011;2965;42.640;23.370;2022-11-04T16:24:53;56.43;;;26.17;;
5878;SDS011;2965;42.640;23.370;2022-11-04T16:27:20;63.57;;;27.03;;
5878;SDS011;2965;42.640;23.370;2022-11-04T16:29:55;50.70;;;18.80;;
5878;SDS011;2965;42.640;23.370;2022-11-04T16:32:27;45.33;;;18.03;;
5878;SDS011;2965;42.640;23.370;2022-11-04T16:51:55;31.57;;;17.40;;
5878;SDS011;2965;42.640;23.370;2022-11-04T16:54:25;35.43;;;17.00;;
5878;SDS011;2965;42.640;23.370;2022-11-04T16:56:51;41.13;;;17.83;;
5878;SDS011;2965;42.640;23.370;2022-11-04T16:59:20;41.37;;;17.80;;
5878;SDS011;2965;42.640;23.370;2022-11-04T17:01:46;43.10;;;17.60;;
5878;SDS011;2965;42.640;23.370;2022-11-04T17:04:11;37.67;;;16.67;;
5878;SDS011;2965;42.640;23.370;2022-11-04T17:06:36;36.37;;;17.87;;
5878;SDS011;2965;42.640;23.370;2022-11-04T17:09:02;36.80;;;16.87;;
5878;SDS011;2965;42.640;23.370;2022-11-04T17:11:31;34.17;;;15.63;;
5878;SDS011;2965;42.640;23.370;2022-11-04T17:13:56;41.90;;;18.07;;
5878;SDS011;2965;42.640;23.370;2022-11-04T17:16:22;31.83;;;15.63;;
5878;SDS011;2965;42.640;23.370;2022-11-04T17:18:47;41.37;;;17.70;;
5878;SDS011;2965;42.640;23.370;2022-11-04T17:21:13;31.27;;;15.80;;
5878;SDS011;2965;42.640;23.370;2022-11-04T17:23:41;32.90;;;15.73;;
5878;SDS011;2965;42.640;23.370;2022-11-04T17:26:07;37.70;;;17.67;;
5878;SDS011;2965;42.640;23.370;2022-11-04T17:28:35;31.63;;;17.70;;
5878;SDS011;2965;42.640;23.370;2022-11-04T17:31:01;35.90;;;19.90;;
5878;SDS011;2965;42.640;23.370;2022-11-04T17:33:27;40.20;;;17.40;;
5878;SDS011;2965;42.640;23.370;2022-11-04T17:35:53;49.60;;;19.27;;
5878;SDS011;2965;42.640;23.370;2022-11-04T17:38:18;34.93;;;15.30;;
5878;SDS011;2965;42.640;23.370;2022-11-04T17:40:43;37.40;;;16.63;;
5878;SDS011;2965;42.640;23.370;2022-11-04T17:43:28;38.10;;;17.43;;
5878;SDS011;2965;42.640;23.370;2022-11-04T17:46:12;46.93;;;17.40;;
5878;SDS011;2965;42.640;23.370;2022-11-04T17:48:57;48.63;;;18.10;;
5878;SDS011;2965;42.640;23.370;2022-11-04T17:51:22;39.27;;;16.10;;
5878;SDS011;2965;42.640;23.370;2022-11-04T17:53:49;38.60;;;16.57;;
5878;SDS011;2965;42.640;23.370;2022-11-04T17:56:15;27.23;;;16.40;;
5878;SDS011;2965;42.640;23.370;2022-11-04T17:58:45;31.90;;;16.30;;
5878;SDS011;2965;42.640;23.370;2022-11-04T18:01:11;34.90;;;17.83;;
5878;SDS011;2965;42.640;23.370;2022-11-04T18:03:38;47.30;;;17.57;;
5878;SDS011;2965;42.640;23.370;2022-11-04T18:06:04;30.47;;;16.00;;
5878;SDS011;2965;42.640;23.370;2022-11-04T18:08:30;43.10;;;18.10;;
5878;SDS011;2965;42.640;23.370;2022-11-04T18:10:59;30.90;;;16.30;;
5878;SDS011;2965;42.640;23.370;2022-11-04T18:13:27;32.57;;;16.00;;
5878;SDS011;2965;42.640;23.370;2022-11-04T18:15:52;28.03;;;17.67;;
5878;SDS011;2965;42.640;23.370;2022-11-04T18:18:18;36.03;;;17.23;;
5878;SDS011;2965;42.640;23.370;2022-11-04T18:20:44;34.73;;;16.30;;
5878;SDS011;2965;42.640;23.370;2022-11-04T18:23:09;31.97;;;15.87;;
5878;SDS011;2965;42.640;23.370;2022-11-04T18:25:37;32.90;;;17.57;;
5878;SDS011;2965;42.640;23.370;2022-11-04T18:28:03;38.50;;;16.23;;
5878;SDS011;2965;42.640;23.370;2022-11-04T18:30:29;34.30;;;16.30;;
5878;SDS011;2965;42.640;23.370;2022-11-04T18:32:54;39.10;;;18.00;;
5878;SDS011;2965;42.640;23.370;2022-11-04T18:35:19;38.77;;;16.70;;
5878;SDS011;2965;42.640;23.370;2022-11-04T18:37:45;33.70;;;16.57;;
5878;SDS011;2965;42.640;23.370;2022-11-04T18:40:10;35.40;;;18.07;;
5878;SDS011;2965;42.640;23.370;2022-11-04T18:42:36;44.37;;;17.53;;
5878;SDS011;2965;42.640;23.370;2022-11-04T18:45:01;29.57;;;17.20;;
5878;SDS011;2965;42.640;23.370;2022-11-04T18:47:26;38.80;;;17.20;;
5878;SDS011;2965;42.640;23.370;2022-11-04T18:49:52;33.03;;;16.47;;
5878;SDS011;2965;42.640;23.370;2022-11-04T18:52:17;36.80;;;15.93;;
5878;SDS011;2965;42.640;23.370;2022-11-04T18:54:43;27.13;;;14.40;;
5878;SDS011;2965;42.640;23.370;2022-11-04T18:57:08;27.00;;;14.90;;
5878;SDS011;2965;42.640;23.370;2022-11-04T18:59:35;22.43;;;13.83;;
5878;SDS011;2965;42.640;23.370;2022-11-04T19:02:01;29.50;;;13.97;;
5878;SDS011;2965;42.640;23.370;2022-11-04T19:04:27;29.03;;;13.43;;
5878;SDS011;2965;42.640;23.370;2022-11-04T19:06:53;22.37;;;12.50;;
5878;SDS011;2965;42.640;23.370;2022-11-04T19:09:18;25.30;;;13.97;;
5878;SDS011;2965;42.640;23.370;2022-11-04T19:11:44;25.53;;;13.90;;
5878;SDS011;2965;42.640;23.370;2022-11-04T19:14:10;21.67;;;12.73;;
5878;SDS011;2965;42.640;23.370;2022-11-04T19:16:39;31.83;;;14.60;;
5878;SDS011;2965;42.640;23.370;2022-11-04T19:19:06;29.90;;;14.57;;
5878;SDS011;2965;42.640;23.370;2022-11-04T19:21:32;26.73;;;13.73;;
5878;SDS011;2965;42.640;23.370;2022-11-04T19:23:58;19.50;;;13.97;;
5878;SDS011;2965;42.640;23.370;2022-11-04T19:26:31;24.50;;;13.97;;
5878;SDS011;2965;42.640;23.370;2022-11-04T19:28:57;36.30;;;13.97;;
5878;SDS011;2965;42.640;23.370;2022-11-04T19:31:25;30.33;;;14.00;;
5878;SDS011;2965;42.640;23.370;2022-11-04T19:33:52;23.73;;;13.93;;
5878;SDS011;2965;42.640;23.370;2022-11-04T19:36:20;26.40;;;14.63;;
5878;SDS011;2965;42.640;23.370;2022-11-04T19:38:46;24.90;;;14.37;;
5878;SDS011;2965;42.640;23.370;2022-11-04T19:41:15;40.97;;;15.20;;
5878;SDS011;2965;42.640;23.370;2022-11-04T19:44:01;28.53;;;15.50;;
5878;SDS011;2965;42.640;23.370;2022-11-04T19:46:28;26.30;;;15.70;;
5878;SDS011;2965;42.640;23.370;2022-11-04T19:48:55;27.67;;;15.53;;
5878;SDS011;2965;42.640;23.370;2022-11-04T19:51:21;25.10;;;15.00;;
5878;SDS011;2965;42.640;23.370;2022-11-04T19:53:46;22.33;;;14.43;;
5878;SDS011;2965;42.640;23.370;2022-11-04T19:56:13;27.43;;;15.00;;
5878;SDS011;2965;42.640;23.370;2022-11-04T19:58:42;35.30;;;16.53;;
5878;SDS011;2965;42.640;23.370;2022-11-04T20:01:08;30.53;;;16.57;;
5878;SDS011;2965;42.640;23.370;2022-11-04T20:03:36;34.33;;;16.00;;
5878;SDS011;2965;42.640;23.370;2022-11-04T20:06:03;26.43;;;16.07;;
5878;SDS011;2965;42.640;23.370;2022-11-04T20:08:31;41.53;;;18.13;;
5878;SDS011;2965;42.640;23.370;2022-11-04T20:27:36;44.87;;;18.90;;
5878;SDS011;2965;42.640;23.370;2022-11-04T20:30:02;33.33;;;17.57;;
5878;SDS011;2965;42.640;23.370;2022-11-04T20:32:28;47.00;;;20.50;;
5878;SDS011;2965;42.640;23.370;2022-11-04T20:34:54;64.57;;;25.43;;
5878;SDS011;2965;42.640;23.370;2022-11-04T20:37:19;51.23;;;21.90;;
5878;SDS011;2965;42.640;23.370;2022-11-04T20:39:45;41.87;;;21.20;;
5878;SDS011;2965;42.640;23.370;2022-11-04T20:42:11;46.90;;;24.03;;
5878;SDS011;2965;42.640;23.370;2022-11-04T20:44:36;38.90;;;21.83;;
5878;SDS011;2965;42.640;23.370;2022-11-04T20:47:02;58.60;;;23.27;;
5878;SDS011;2965;42.640;23.370;2022-11-04T20:49:27;42.47;;;22.97;;
5878;SDS011;2965;42.640;23.370;2022-11-04T20:51:53;49.73;;;24.10;;
5878;SDS011;2965;42.640;23.370;2022-11-04T20:54:22;42.83;;;23.23;;
5878;SDS011;2965;42.640;23.370;2022-11-04T20:56:48;50.90;;;23.77;;
5878;SDS011;2965;42.640;23.370;2022-11-04T20:59:13;46.90;;;23.77;;
5878;SDS011;2965;42.640;23.370;2022-11-04T21:01:40;48.93;;;24.87;;
5878;SDS011;2965;42.640;23.370;2022-11-04T21:04:08;47.37;;;22.80;;
5878;SDS011;2965;42.640;23.370;2022-11-04T21:06:42;66.03;;;27.40;;
5878;SDS011;2965;42.640;23.370;2022-11-04T21:09:10;49.63;;;24.43;;
5878;SDS011;2965;42.640;23.370;2022-11-04T21:11:36;61.93;;;24.20;;
5878;SDS011;2965;42.640;23.370;2022-11-04T21:14:03;53.70;;;26.10;;
5878;SDS011;2965;42.640;23.370;2022-11-04T21:16:30;52.37;;;22.90;;
5878;SDS011;2965;42.640;23.370;2022-11-04T21:18:57;60.67;;;25.53;;
5878;SDS011;2965;42.640;23.370;2022-11-04T21:21:23;48.07;;;25.50;;
5878;SDS011;2965;42.640;23.370;2022-11-04T21:23:58;53.27;;;23.90;;
5878;SDS011;2965;42.640;23.370;2022-11-04T21:26:26;56.40;;;26.70;;
5878;SDS011;2965;42.640;23.370;2022-11-04T21:28:53;57.37;;;27.17;;
5878;SDS011;2965;42.640;23.370;2022-11-04T21:31:19;50.23;;;25.43;;
5878;SDS011;2965;42.640;23.370;2022-11-04T21:33:45;64.03;;;27.43;;
5878;SDS011;2965;42.640;23.370;2022-11-04T21:36:11;51.20;;;25.20;;
5878;SDS011;2965;42.640;23.370;2022-11-04T21:38:38;53.97;;;24.83;;
5878;SDS011;2965;42.640;23.370;2022-11-04T21:41:08;51.97;;;26.07;;
5878;SDS011;2965;42.640;23.370;2022-11-04T21:43:35;44.33;;;25.40;;
5878;SDS011;2965;42.640;23.370;2022-11-04T21:46:05;52.07;;;25.43;;
5878;SDS011;2965;42.640;23.370;2022-11-04T21:48:31;66.97;;;27.63;;
5878;SDS011;2965;42.640;23.370;2022-11-04T21:50:59;55.67;;;25.37;;
5878;SDS011;2965;42.640;23.370;2022-11-04T21:53:30;55.10;;;23.60;;
5878;SDS011;2965;42.640;23.370;2022-11-04T21:56:05;54.53;;;25.83;;
5878;SDS011;2965;42.640;23.370;2022-11-04T21:58:36;46.17;;;25.53;;
